Time;durP1;ratioP1;P1;durP2;ratioP2;P2;SDS_P1;SDS_P2;PMS_P1;PMS_P2;Temp;Humidity;BMP_temperature;BMP_pressure;BME280_temperature;BME280_humidity;BME280_pressure;Samples;Min_cycle;Max_cycle;Signal;HPM_P1;HPM_P2
2023/05/06 00:00:06;;;;;;;10.60;5.97;;;;;;;;;;5020710;28;20041;-83
2023/05/06 00:02:32;;;;;;;7.97;5.10;;;;;;;;;;5020951;28;20069;-84
2023/05/06 00:04:58;;;;;;;9.38;4.30;;;;;;;;;;5026921;28;20414;-84
2023/05/06 00:07:24;;;;;;;9.23;4.95;;;;;;;;;;5016202;28;20041;-82
2023/05/06 00:09:50;;;;;;;8.52;4.97;;;;;;;;;;5030719;28;20072;-87
2023/05/06 00:12:16;;;;;;;9.10;4.93;;;;;;;;;;5020810;28;20022;-83
2023/05/06 00:14:42;;;;;;;7.10;3.72;;;;;;;;;;5019134;28;20432;-82
2023/05/06 00:17:08;;;;;;;8.82;4.53;;;;;;;;;;5019473;28;20033;-84
2023/05/06 00:19:34;;;;;;;7.20;3.92;;;;;;;;;;5018875;28;20028;-83
2023/05/06 00:22:00;;;;;;;5.55;3.88;;;;;;;;;;5043322;28;20026;-83
2023/05/06 00:24:26;;;;;;;7.72;5.05;;;;;;;;;;5025528;28;20033;-84
2023/05/06 00:26:52;;;;;;;7.28;3.70;;;;;;;;;;5028706;28;20083;-84
2023/05/06 00:29:18;;;;;;;6.88;4.18;;;;;;;;;;5026839;28;20021;-83
2023/05/06 00:31:44;;;;;;;7.95;4.28;;;;;;;;;;5025655;28;20030;-85
2023/05/06 00:34:10;;;;;;;9.95;5.18;;;;;;;;;;5026234;28;20056;-85
2023/05/06 00:36:37;;;;;;;8.32;4.95;;;14.10;99.90;;;;;;5031305;28;20029;-84
2023/05/06 00:39:03;;;;;;;6.82;4.10;;;;;;;;;;5028105;28;20061;-85
2023/05/06 00:41:32;;;;;;;8.43;4.57;;;;;;;;;;5027585;28;20075;-85
2023/05/06 00:43:58;;;;;;;6.25;4.13;;;14.30;99.90;;;;;;5028496;28;20037;-83
2023/05/06 00:46:24;;;;;;;10.00;4.93;;;;;;;;;;5024851;28;20112;-83
2023/05/06 00:48:51;;;;;;;7.90;3.58;;;;;;;;;;5041523;28;20025;-85
2023/05/06 00:51:17;;;;;;;8.30;5.22;;;;;;;;;;5046221;28;20022;-80
2023/05/06 00:53:45;;;;;;;11.18;5.30;;;14.10;99.90;;;;;;5043716;28;20040;-80
2023/05/06 00:56:11;;;;;;;8.30;5.55;;;;;;;;;;5030027;28;20363;-82
2023/05/06 00:58:38;;;;;;;5.88;4.22;;;;;;;;;;5028690;28;20030;-81
2023/05/06 01:01:04;;;;;;;7.78;4.50;;;;;;;;;;5021064;28;20118;-81
2023/05/06 01:03:30;;;;;;;9.32;4.70;;;;;;;;;;5024472;28;20025;-79
2023/05/06 01:06:07;;;;;;;8.80;4.90;;;;;;;;;;5027750;28;20109;-83
2023/05/06 01:08:53;;;;;;;8.90;4.65;;;15.20;99.90;;;;;;5030340;28;20029;-84
2023/05/06 01:11:24;;;;;;;9.98;4.93;;;;;;;;;;5022144;28;20025;-80
2023/05/06 01:13:55;;;;;;;8.10;4.57;;;;;;;;;;5029348;28;20235;-81
2023/05/06 01:16:24;;;;;;;12.55;5.95;;;14.30;99.90;;;;;;5028693;28;20034;-81
2023/05/06 01:18:51;;;;;;;10.90;4.95;;;;;;;;;;5038402;28;20028;-82
2023/05/06 01:21:18;;;;;;;9.63;6.25;;;;;;;;;;5021412;28;20030;-82
2023/05/06 01:23:54;;;;;;;6.10;4.13;;;;;;;;;;5026296;28;20021;-81
2023/05/06 01:26:21;;;;;;;9.23;5.28;;;;;;;;;;5026818;28;20124;-85
2023/05/06 01:28:47;;;;;;;6.28;4.43;;;;;;;;;;5026797;28;20112;-81
2023/05/06 01:31:16;;;;;;;9.05;3.90;;;;;;;;;;5026500;28;20060;-81
2023/05/06 01:33:47;;;;;;;8.48;5.20;;;14.50;99.90;;;;;;5025809;28;20030;-82
2023/05/06 01:36:28;;;;;;;6.30;4.28;;;14.30;99.90;;;;;;5028694;28;20025;-81
2023/05/06 01:39:13;;;;;;;7.80;4.63;;;14.40;99.90;;;;;;5021667;28;20065;-84
2023/05/06 01:41:40;;;;;;;7.35;4.93;;;;;;;;;;5030929;28;20050;-83
2023/05/06 01:44:07;;;;;;;7.93;4.40;;;15.00;99.90;;;;;;5031004;28;20067;-83
2023/05/06 01:46:34;;;;;;;8.77;5.07;;;14.30;99.90;;;;;;5026108;28;20029;-82
2023/05/06 01:49:02;;;;;;;10.32;5.82;;;;;;;;;;5026636;28;20136;-82
2023/05/06 01:51:28;;;;;;;9.65;5.35;;;;;;;;;;5024993;28;20053;-81
2023/05/06 01:53:53;;;;;;;7.22;4.68;;;;;;;;;;5026839;28;20087;-82
2023/05/06 01:56:20;;;;;;;8.63;4.65;;;;;;;;;;5024098;28;20049;-83
2023/05/06 01:58:46;;;;;;;10.07;4.85;;;;;;;;;;5021676;28;20026;-83
2023/05/06 02:01:12;;;;;;;8.90;4.63;;;;;;;;;;5024565;28;20395;-84
2023/05/06 02:03:38;;;;;;;8.77;4.90;;;;;;;;;;5026848;28;20076;-84
2023/05/06 02:06:04;;;;;;;11.25;4.07;;;;;;;;;;5021578;28;20033;-83
2023/05/06 02:08:30;;;;;;;8.07;5.53;;;;;;;;;;5021987;28;20041;-84
2023/05/06 02:10:56;;;;;;;8.77;4.68;;;;;;;;;;5026164;28;20060;-83
2023/05/06 02:13:22;;;;;;;8.93;5.22;;;;;;;;;;5024233;28;20036;-83
2023/05/06 02:15:52;;;;;;;7.57;4.10;;;13.60;99.90;;;;;;5025049;28;20022;-82
2023/05/06 02:18:18;;;;;;;7.15;4.47;;;;;;;;;;5020132;28;20038;-84
2023/05/06 02:20:44;;;;;;;10.75;5.50;;;;;;;;;;5022730;28;20432;-82
2023/05/06 02:23:10;;;;;;;9.00;4.90;;;;;;;;;;5027831;28;20068;-83
2023/05/06 02:25:36;;;;;;;7.55;4.05;;;;;;;;;;5023902;28;20056;-82
2023/05/06 02:28:02;;;;;;;9.30;5.30;;;;;;;;;;5030587;28;20029;-83
2023/05/06 02:30:31;;;;;;;7.82;4.68;;;;;;;;;;5018755;28;20034;-84
2023/05/06 02:32:57;;;;;;;9.13;5.10;;;;;;;;;;5019770;28;20559;-83
2023/05/06 02:35:23;;;;;;;10.55;5.85;;;;;;;;;;5018141;28;20026;-82
2023/05/06 02:37:49;;;;;;;9.90;4.57;;;13.60;99.90;;;;;;5024644;28;20076;-82
2023/05/06 02:40:15;;;;;;;8.13;4.68;;;;;;;;;;5023305;28;20506;-84
2023/05/06 02:42:41;;;;;;;8.60;4.07;;;;;;;;;;5026600;28;20493;-81
2023/05/06 02:45:07;;;;;;;7.93;4.50;;;;;;;;;;5028353;28;20033;-83
2023/05/06 02:47:33;;;;;;;9.95;4.07;;;;;;;;;;5031350;28;20132;-82
2023/05/06 02:49:59;;;;;;;8.50;5.03;;;;;;;;;;5021352;28;20119;-84
2023/05/06 02:52:25;;;;;;;10.32;5.38;;;;;;;;;;5025996;28;20444;-82
2023/05/06 02:54:51;;;;;;;10.05;4.38;;;;;;;;;;5024055;28;20036;-81
2023/05/06 02:57:17;;;;;;;7.80;4.57;;;14.00;99.90;;;;;;5023153;28;20025;-81
2023/05/06 02:59:43;;;;;;;9.68;4.97;;;;;;;;;;5027691;28;20486;-86
2023/05/06 03:02:09;;;;;;;8.50;4.07;;;;;;;;;;5031799;28;20037;-82
2023/05/06 03:04:35;;;;;;;6.95;4.30;;;;;;;;;;5025222;28;20527;-82
2023/05/06 03:07:01;;;;;;;6.03;3.88;;;;;;;;;;5029419;28;20472;-83
2023/05/06 03:09:27;;;;;;;8.10;4.35;;;;;;;;;;5023617;28;20025;-81
2023/05/06 03:11:53;;;;;;;8.93;4.50;;;;;;;;;;5021283;28;20109;-82
2023/05/06 03:14:18;;;;;;;6.88;4.28;;;;;;;;;;5017604;28;20493;-83
2023/05/06 03:16:44;;;;;;;8.63;4.95;;;;;;;;;;5022886;28;20641;-83
2023/05/06 03:19:11;;;;;;;12.00;5.00;;;;;;;;;;5021916;28;20673;-83
2023/05/06 03:21:37;;;;;;;8.07;5.00;;;;;;;;;;5024258;28;20638;-81
2023/05/06 03:24:03;;;;;;;7.90;4.18;;;;;;;;;;5021802;28;20038;-81
2023/05/06 03:26:29;;;;;;;9.27;5.03;;;13.20;99.90;;;;;;5020793;28;20080;-80
2023/05/06 03:28:55;;;;;;;7.93;4.63;;;;;;;;;;5019139;28;20053;-82
2023/05/06 03:31:21;;;;;;;8.30;5.43;;;;;;;;;;5032670;28;20125;-84
2023/05/06 03:33:47;;;;;;;10.00;4.95;;;;;;;;;;5026699;28;20084;-81
2023/05/06 03:36:13;;;;;;;9.57;5.03;;;;;;;;;;5019531;28;20113;-82
2023/05/06 03:38:39;;;;;;;11.25;4.97;;;13.30;99.90;;;;;;5024369;28;20026;-83
2023/05/06 03:41:05;;;;;;;8.05;5.00;;;13.70;99.90;;;;;;5019715;28;20371;-82
2023/05/06 03:43:31;;;;;;;10.45;6.10;;;;;;;;;;5014816;28;20044;-82
2023/05/06 03:45:57;;;;;;;8.60;5.57;;;;;;;;;;5021613;28;20029;-82
2023/05/06 03:48:23;;;;;;;11.45;6.57;;;;;;;;;;5025125;28;20104;-82
2023/05/06 03:50:50;;;;;;;11.63;6.20;;;;;;;;;;5024968;28;20061;-82
2023/05/06 03:53:16;;;;;;;12.23;6.90;;;;;;;;;;5025532;28;20021;-82
2023/05/06 03:55:42;;;;;;;10.68;6.53;;;;;;;;;;5024485;28;20088;-83
2023/05/06 03:58:08;;;;;;;11.80;6.78;;;;;;;;;;5024489;28;20033;-85
2023/05/06 04:00:34;;;;;;;12.30;6.68;;;;;;;;;;5022037;28;20026;-83
2023/05/06 04:03:00;;;;;;;11.40;7.00;;;;;;;;;;5040731;28;20533;-85
2023/05/06 04:05:26;;;;;;;13.38;6.85;;;12.40;99.90;;;;;;5026898;28;22044;-82
2023/05/06 04:07:53;;;;;;;11.00;6.28;;;;;;;;;;5027038;28;20030;-82
2023/05/06 04:10:19;;;;;;;11.38;6.10;;;;;;;;;;5020333;28;20630;-80
2023/05/06 04:12:46;;;;;;;15.55;7.35;;;;;;;;;;5021078;28;20025;-82
2023/05/06 04:15:11;;;;;;;12.52;6.68;;;;;;;;;;5023606;28;20026;-84
2023/05/06 04:17:37;;;;;;;13.25;6.95;;;;;;;;;;5025576;28;20029;-82
2023/05/06 04:20:05;;;;;;;13.05;6.80;;;;;;;;;;5024693;28;20021;-81
2023/05/06 04:22:31;;;;;;;15.10;6.95;;;;;;;;;;5022175;28;20048;-80
2023/05/06 04:24:59;;;;;;;10.98;7.05;;;;;;;;;;5026912;28;20080;-82
2023/05/06 04:27:26;;;;;;;12.40;6.30;;;13.60;99.90;;;;;;5026958;28;20152;-80
2023/05/06 04:29:52;;;;;;;11.77;6.50;;;12.60;99.90;;;;;;5020848;28;20525;-82
2023/05/06 04:32:18;;;;;;;12.00;6.80;;;;;;;;;;5025944;28;20044;-81
2023/05/06 04:34:46;;;;;;;14.13;7.03;;;;;;;;;;5027161;28;20034;-82
2023/05/06 04:37:12;;;;;;;11.10;6.53;;;;;;;;;;5024033;28;20596;-82
2023/05/06 04:39:38;;;;;;;10.52;5.47;;;;;;;;;;5022376;28;20396;-82
2023/05/06 04:42:04;;;;;;;11.30;5.88;;;13.20;99.90;;;;;;5024269;28;20102;-81
2023/05/06 04:44:32;;;;;;;11.13;7.15;;;13.30;99.90;;;;;;5018987;28;20490;-84
2023/05/06 04:46:58;;;;;;;12.82;6.85;;;;;;;;;;5027156;28;20029;-83
2023/05/06 04:49:24;;;;;;;12.10;6.75;;;;;;;;;;5030531;28;20088;-82
2023/05/06 04:51:50;;;;;;;12.27;6.88;;;;;;;;;;5024456;28;20128;-83
2023/05/06 04:54:16;;;;;;;10.93;5.82;;;;;;;;;;5023795;28;20048;-81
2023/05/06 04:56:42;;;;;;;8.95;5.53;;;;;;;;;;5021789;28;20118;-80
2023/05/06 04:59:08;;;;;;;13.60;7.28;;;;;;;;;;5030410;28;20033;-81
2023/05/06 05:01:34;;;;;;;10.55;6.18;;;;;;;;;;5026813;28;20566;-82
2023/05/06 05:04:00;;;;;;;14.05;6.75;;;;;;;;;;5024394;28;20113;-82
2023/05/06 05:06:26;;;;;;;11.50;6.53;;;;;;;;;;5041894;28;20052;-85
2023/05/06 05:08:52;;;;;;;13.05;6.50;;;;;;;;;;5056379;28;20025;-83
2023/05/06 05:11:19;;;;;;;15.55;6.93;;;;;;;;;;5042295;28;20064;-84
2023/05/06 05:13:45;;;;;;;10.07;6.63;;;;;;;;;;5025666;28;20021;-83
2023/05/06 05:16:11;;;;;;;9.80;5.05;;;;;;;;;;5017054;28;20134;-82
2023/05/06 05:18:37;;;;;;;7.80;5.28;;;;;;;;;;5027479;28;20037;-86
2023/05/06 05:21:03;;;;;;;8.65;5.10;;;;;;;;;;5002814;28;20033;-84
2023/05/06 05:23:29;;;;;;;11.75;6.07;;;;;;;;;;5026522;28;20109;-84
2023/05/06 05:25:55;;;;;;;9.00;4.82;;;;;;;;;;5023856;28;20026;-84
2023/05/06 05:28:21;;;;;;;7.50;4.22;;;;;;;;;;5022979;28;20536;-84
2023/05/06 05:30:47;;;;;;;8.88;4.63;;;;;;;;;;5020581;28;20032;-83
2023/05/06 05:33:13;;;;;;;7.85;4.75;;;;;;;;;;5009673;28;20040;-84
2023/05/06 05:35:39;;;;;;;9.77;4.78;;;;;;;;;;5024827;28;20045;-83
2023/05/06 05:38:04;;;;;;;8.68;4.90;;;;;;;;;;5019153;28;20072;-84
2023/05/06 05:40:30;;;;;;;9.23;4.53;;;;;;;;;;5027100;28;20196;-84
2023/05/06 05:42:56;;;;;;;8.73;4.50;;;;;;;;;;5018363;28;20037;-84
2023/05/06 05:45:22;;;;;;;10.00;4.55;;;;;;;;;;5010680;28;20038;-84
2023/05/06 05:47:48;;;;;;;6.72;3.10;;;;;;;;;;5013102;28;20067;-84
2023/05/06 05:50:14;;;;;;;8.38;3.42;;;;;;;;;;5028122;28;20025;-83
2023/05/06 05:52:40;;;;;;;5.90;3.42;;;;;;;;;;5040430;28;20029;-84
2023/05/06 05:55:06;;;;;;;8.15;3.72;;;15.60;99.90;;;;;;5030145;28;20033;-84
2023/05/06 05:57:32;;;;;;;7.10;3.72;;;;;;;;;;5036183;28;20040;-83
2023/05/06 05:59:58;;;;;;;6.10;3.65;;;;;;;;;;5037494;28;20108;-83
2023/05/06 06:02:24;;;;;;;9.75;4.07;;;;;;;;;;5044749;28;20036;-85
2023/05/06 06:04:50;;;;;;;8.13;4.32;;;;;;;;;;5037700;28;20107;-85
2023/05/06 06:07:16;;;;;;;5.95;3.38;;;;;;;;;;5021092;28;20037;-84
2023/05/06 06:09:45;;;;;;;6.47;2.78;;;;;;;;;;5026601;28;20039;-84
2023/05/06 06:12:11;;;;;;;5.85;3.60;;;;;;;;;;5026412;28;20067;-84
2023/05/06 06:14:37;;;;;;;3.30;2.30;;;;;;;;;;5028154;28;20049;-83
2023/05/06 06:17:03;;;;;;;4.50;2.63;;;;;;;;;;5020306;28;20393;-85
2023/05/06 06:19:29;;;;;;;7.25;3.30;;;;;;;;;;5026327;28;20124;-83
2023/05/06 06:21:56;;;;;;;5.25;2.95;;;;;;;;;;5041394;28;20056;-84
2023/05/06 06:24:22;;;;;;;4.63;2.90;;;;;;;;;;5051010;28;20029;-84
2023/05/06 06:26:49;;;;;;;5.75;2.90;;;;;;;;;;5044169;28;20029;-84
2023/05/06 06:29:15;;;;;;;6.60;3.38;;;;;;;;;;5030466;28;20034;-81
2023/05/06 06:31:41;;;;;;;4.68;2.60;;;;;;;;;;5031842;28;20030;-82
2023/05/06 06:34:08;;;;;;;3.42;2.13;;;;;;;;;;5034550;28;20038;-82
2023/05/06 06:36:34;;;;;;;4.85;2.85;;;;;;;;;;5020333;28;20060;-83
2023/05/06 06:39:00;;;;;;;4.60;2.53;;;;;;;;;;5033816;28;20054;-82
2023/05/06 06:41:27;;;;;;;9.50;2.40;;;;;;;;;;5033127;28;20109;-82
2023/05/06 06:43:53;;;;;;;5.55;2.28;;;;;;;;;;5034768;28;20490;-81
2023/05/06 06:46:18;;;;;;;5.68;2.30;;;;;;;;;;5029914;28;20033;-81
2023/05/06 06:48:44;;;;;;;2.17;1.58;;;;;;;;;;5023277;28;20095;-85
2023/05/06 06:51:10;;;;;;;3.20;2.00;;;;;;;;;;5026456;28;20049;-83
2023/05/06 06:53:36;;;;;;;2.95;2.13;;;;;;;;;;5019485;28;20033;-83
2023/05/06 06:56:02;;;;;;;2.95;2.08;;;;;;;;;;5013830;28;20034;-85
2023/05/06 06:58:28;;;;;;;7.85;1.88;;;;;;;;;;5025465;28;20038;-83
2023/05/06 07:00:54;;;;;;;2.95;2.03;;;;;;;;;;5015089;28;20036;-83
2023/05/06 07:03:20;;;;;;;8.27;2.30;;;;;;;;;;5018262;28;20902;-83
2023/05/06 07:05:46;;;;;;;3.65;2.35;;;;;;;;;;5015259;28;20034;-84
2023/05/06 07:08:12;;;;;;;3.28;2.22;;;;;;;;;;5012757;28;20600;-84
2023/05/06 07:10:38;;;;;;;7.53;2.45;;;;;;;;;;5032375;28;20112;-82
2023/05/06 07:13:04;;;;;;;3.20;1.95;;;;;;;;;;5035783;28;20089;-82
2023/05/06 07:15:30;;;;;;;3.95;1.90;;;;;;;;;;5010518;28;20122;-82
2023/05/06 07:17:56;;;;;;;4.18;1.90;;;;;;;;;;5014640;28;20030;-83
2023/05/06 07:20:22;;;;;;;6.93;1.90;;;;;;;;;;5021221;28;20034;-81
2023/05/06 07:22:48;;;;;;;3.25;1.90;;;;;;;;;;5018820;28;20061;-82
2023/05/06 07:25:14;;;;;;;3.63;2.33;;;;;;;;;;5029309;28;20555;-81
2023/05/06 07:27:40;;;;;;;4.43;2.17;;;;;;;;;;5020175;28;20291;-81
2023/05/06 07:30:07;;;;;;;4.32;1.92;;;;;;;;;;5018816;28;20052;-82
2023/05/06 07:32:32;;;;;;;4.07;1.60;;;;;;;;;;5022289;28;20026;-81
2023/05/06 07:34:58;;;;;;;2.53;1.80;;;;;;;;;;5017655;28;20044;-82
2023/05/06 07:37:24;;;;;;;3.63;1.38;;;;;;;;;;5035704;28;20112;-82
2023/05/06 07:39:50;;;;;;;3.95;1.50;;;;;;;;;;5026285;28;20254;-82
2023/05/06 07:42:16;;;;;;;3.17;1.80;;;;;;;;;;5029141;28;20033;-82
2023/05/06 07:44:42;;;;;;;5.22;2.45;;;;;;;;;;5019111;28;20079;-82
2023/05/06 07:47:08;;;;;;;3.65;2.10;;;;;;;;;;5021608;28;20021;-82
2023/05/06 07:49:34;;;;;;;4.72;1.90;;;;;;;;;;5023495;28;20079;-83
2023/05/06 07:52:00;;;;;;;4.50;2.20;;;;;;;;;;5021669;28;20052;-82
2023/05/06 07:54:26;;;;;;;3.72;2.33;;;;;;;;;;5026619;28;20481;-82
2023/05/06 07:56:52;;;;;;;3.03;2.13;;;;;;;;;;5026007;28;20052;-82
2023/05/06 07:59:18;;;;;;;3.67;1.65;;;;;;;;;;5018836;28;20056;-82
2023/05/06 08:01:44;;;;;;;3.08;1.77;;;;;;;;;;5022386;28;20028;-82
2023/05/06 08:04:10;;;;;;;3.20;2.10;;;;;;;;;;5021139;28;20045;-84
2023/05/06 08:06:36;;;;;;;3.40;1.88;;;;;;;;;;5028978;28;20026;-84
2023/05/06 08:09:02;;;;;;;5.85;2.70;;;;;;;;;;5021758;28;20346;-83
2023/05/06 08:11:28;;;;;;;4.15;2.90;;;;;;;;;;5014944;28;20026;-83
2023/05/06 08:13:54;;;;;;;5.70;2.88;;;;;;;;;;5019897;28;20543;-81
2023/05/06 08:16:20;;;;;;;4.20;3.00;;;;;;;;;;5020430;28;20040;-81
2023/05/06 08:18:46;;;;;;;3.90;2.28;;;;;;;;;;5008856;28;20025;-83
2023/05/06 08:21:12;;;;;;;5.55;2.78;;;;;;;;;;5014169;28;20033;-83
2023/05/06 08:23:38;;;;;;;5.85;2.92;;;;;;;;;;5008784;28;20091;-83
2023/05/06 08:26:04;;;;;;;7.05;2.65;;;;;;;;;;5008384;28;20572;-82
2023/05/06 08:28:30;;;;;;;3.63;2.20;;;;;;;;;;5011289;28;20117;-82
2023/05/06 08:30:56;;;;;;;3.50;2.00;;;;;;;;;;5014984;28;20064;-84
2023/05/06 08:33:22;;;;;;;2.47;1.33;;;;;;;;;;5025207;28;20053;-84
2023/05/06 08:35:48;;;;;;;2.78;1.50;;;;;;;;;;5021027;28;20045;-83
2023/05/06 08:38:14;;;;;;;3.95;1.20;;;;;;;;;;5020479;28;20105;-83
2023/05/06 08:40:43;;;;;;;4.85;1.50;;;25.50;96.80;;;;;;5012978;28;20030;-82
2023/05/06 08:43:13;;;;;;;2.53;1.52;;;26.00;94.30;;;;;;5025146;28;20400;-81
2023/05/06 08:45:39;;;;;;;1.50;1.02;;;;;;;;;;5028202;28;20112;-84
2023/05/06 08:48:05;;;;;;;2.08;1.25;;;;;;;;;;5018333;28;20116;-83
2023/05/06 08:50:31;;;;;;;2.58;1.52;;;27.30;88.20;;;;;;5014551;28;20069;-82
2023/05/06 08:52:58;;;;;;;2.25;1.23;;;;;;;;;;5027637;28;20036;-84
2023/05/06 08:55:26;;;;;;;2.28;1.00;;;27.70;82.50;;;;;;5013558;28;20057;-83
2023/05/06 08:57:52;;;;;;;2.10;1.20;;;;;;;;;;5033744;28;20037;-85
2023/05/06 09:00:18;;;;;;;2.63;1.40;;;;;;;;;;5022628;28;20030;-83
2023/05/06 09:02:44;;;;;;;2.00;1.13;;;;;;;;;;5021524;28;20051;-83
2023/05/06 09:05:10;;;;;;;3.33;1.50;;;;;;;;;;5032075;28;20497;-81
2023/05/06 09:07:37;;;;;;;1.98;1.10;;;;;;;;;;5031294;28;20485;-83
2023/05/06 09:10:10;;;;;;;3.58;1.52;;;24.70;87.20;;;;;;5019960;28;20425;-82
2023/05/06 09:12:36;;;;;;;3.15;1.40;;;;;;;;;;5029373;28;20030;-83
2023/05/06 09:15:02;;;;;;;3.75;1.75;;;;;;;;;;5026616;28;20485;-84
2023/05/06 09:17:31;;;;;;;3.78;1.58;;;24.70;91.00;;;;;;5031685;28;20397;-82
2023/05/06 09:19:57;;;;;;;3.28;1.83;;;;;;;;;;5025709;28;20030;-81
2023/05/06 09:22:29;;;;;;;2.63;1.58;;;24.40;92.70;;;;;;5028753;28;20370;-85
2023/05/06 09:24:58;;;;;;;4.60;1.63;;;;;;;;;;5019925;28;20034;-83
2023/05/06 09:27:32;;;;;;;3.13;1.92;;;;;;;;;;5020729;28;20029;-84
2023/05/06 09:30:00;;;;;;;3.35;1.88;;;;;;;;;;5026559;28;20059;-83
2023/05/06 09:32:27;;;;;;;3.65;1.10;;;22.50;93.30;;;;;;5025607;28;20401;-83
2023/05/06 09:34:53;;;;;;;2.85;1.65;;;;;;;;;;5022183;28;20021;-82
2023/05/06 09:37:19;;;;;;;1.83;1.02;;;;;;;;;;5024887;28;20462;-82
2023/05/06 09:39:46;;;;;;;1.73;0.82;;;;;;;;;;5017450;28;20049;-83
2023/05/06 09:42:12;;;;;;;5.53;1.48;;;;;;;;;;5030512;28;20038;-84
2023/05/06 09:44:38;;;;;;;1.73;0.80;;;;;;;;;;5024549;28;20029;-82
2023/05/06 09:47:05;;;;;;;2.50;0.77;;;21.70;95.00;;;;;;5016653;28;20280;-82
2023/05/06 09:49:31;;;;;;;1.65;1.08;;;;;;;;;;5022033;28;20037;-84
2023/05/06 09:51:57;;;;;;;3.90;0.60;;;;;;;;;;5021394;28;20044;-83
2023/05/06 09:54:24;;;;;;;1.30;0.80;;;;;;;;;;5018740;28;20056;-82
2023/05/06 09:56:51;;;;;;;1.48;0.80;;;;;;;;;;5029196;28;20092;-84
2023/05/06 09:59:17;;;;;;;0.68;0.45;;;;;;;;;;5022251;28;20127;-82
2023/05/06 10:01:44;;;;;;;4.47;1.88;;;21.80;91.00;;;;;;5025752;28;20041;-83
2023/05/06 10:04:13;;;;;;;4.85;0.95;;;;;;;;;;5030164;28;20052;-83
2023/05/06 10:06:39;;;;;;;1.95;0.73;;;22.00;91.00;;;;;;5013565;28;20025;-83
2023/05/06 10:09:06;;;;;;;1.05;0.70;;;21.80;92.50;;;;;;5016911;28;20028;-83
2023/05/06 10:11:32;;;;;;;1.38;0.50;;;;;;;;;;5020496;28;20030;-83
2023/05/06 10:13:59;;;;;;;2.38;0.52;;;;;;;;;;5019304;28;20029;-82
2023/05/06 10:16:25;;;;;;;2.28;0.70;;;;;;;;;;5012352;28;20113;-83
2023/05/06 10:18:54;;;;;;;2.65;0.45;;;;;;;;;;5028744;28;20029;-84
2023/05/06 10:21:23;;;;;;;2.83;0.90;;;22.50;92.40;;;;;;5024897;28;20033;-83
2023/05/06 10:24:10;;;;;;;2.00;0.55;;;22.80;88.30;;;;;;5029500;28;20029;-83
2023/05/06 10:26:37;;;;;;;2.17;0.65;;;22.30;98.60;;;;;;5033841;28;20032;-82
2023/05/06 10:29:09;;;;;;;2.55;0.70;;;22.10;91.10;;;;;;5028685;28;20053;-84
2023/05/06 10:31:38;;;;;;;1.73;0.85;;;22.20;91.30;;;;;;5024390;28;20056;-82
2023/05/06 10:34:05;;;;;;;1.35;0.70;;;22.20;93.00;;;;;;5028530;28;20432;-83
2023/05/06 10:36:36;;;;;;;2.03;0.60;;;;;;;;;;5017712;28;20789;-84
2023/05/06 10:39:02;;;;;;;4.43;0.50;;;;;;;;;;5013977;28;20065;-84
2023/05/06 10:41:29;;;;;;;3.13;0.57;;;;;;;;;;5024717;28;20029;-85
2023/05/06 10:43:56;;;;;;;1.38;0.70;;;;;;;;;;5023137;28;20030;-82
2023/05/06 10:46:26;;;;;;;1.25;0.40;;;23.10;91.40;;;;;;5021619;28;20044;-82
2023/05/06 10:49:10;;;;;;;1.42;0.70;;;22.90;91.00;;;;;;5026767;28;20607;-82
2023/05/06 10:51:39;;;;;;;0.98;0.45;;;22.90;90.30;;;;;;5018331;28;20037;-83
2023/05/06 10:54:17;;;;;;;5.40;0.88;;;22.50;88.90;;;;;;5023041;28;20540;-83
2023/05/06 10:56:49;;;;;;;1.38;0.60;;;22.70;99.60;;;;;;5022773;28;20541;-82
2023/05/06 10:59:25;;;;;;;1.27;0.82;;;22.90;91.40;;;;;;5013462;28;20450;-82
2023/05/06 11:02:07;;;;;;;2.92;0.60;;;;;;;;;;5003285;28;20468;-82
2023/05/06 11:04:33;;;;;;;3.67;0.98;;;;;;;;;;5011625;28;20056;-85
2023/05/06 11:07:10;;;;;;;1.85;0.47;;;22.70;91.10;;;;;;5017415;28;20046;-83
2023/05/06 11:09:57;;;;;;;0.70;0.50;;;22.40;91.50;;;;;;5015470;28;20045;-83
2023/05/06 11:12:43;;;;;;;6.60;0.80;;;22.80;91.90;;;;;;5018188;28;20029;-83
2023/05/06 11:15:23;;;;;;;0.80;0.40;;;22.70;92.10;;;;;;5021294;28;20494;-81
2023/05/06 11:17:49;;;;;;;1.45;0.30;;;;;;;;;;5020993;28;20087;-82
2023/05/06 11:20:18;;;;;;;0.32;0.30;;;22.40;91.80;;;;;;5020494;28;20401;-82
2023/05/06 11:22:44;;;;;;;1.48;0.40;;;;;;;;;;5019023;28;20030;-83
2023/05/06 11:25:10;;;;;;;0.50;0.20;;;;;;;;;;5011063;28;20041;-84
2023/05/06 11:27:37;;;;;;;1.13;0.45;;;21.70;93.30;;;;;;5015434;28;20038;-81
2023/05/06 11:30:03;;;;;;;1.92;0.43;;;;;;;;;;5001632;28;20753;-83
2023/05/06 11:32:29;;;;;;;1.83;0.50;;;;;;;;;;5020593;28;20056;-83
2023/05/06 11:34:56;;;;;;;1.30;0.60;;;;;;;;;;5016392;28;20029;-83
2023/05/06 11:37:26;;;;;;;1.45;0.68;;;23.20;94.30;;;;;;5030166;28;20052;-82
2023/05/06 11:39:52;;;;;;;0.50;0.40;;;;;;;;;;5031287;28;20075;-83
2023/05/06 11:42:27;;;;;;;3.10;0.40;;;22.70;87.80;;;;;;5021077;28;20388;-83
2023/05/06 11:44:54;;;;;;;0.93;0.40;;;22.50;89.30;;;;;;5012784;28;20060;-82
2023/05/06 11:47:23;;;;;;;0.40;0.20;;;22.70;91.70;;;;;;5016544;28;20022;-82
2023/05/06 11:49:54;;;;;;;0.65;0.32;;;23.50;87.40;;;;;;5028660;28;20490;-82
2023/05/06 11:52:20;;;;;;;;;;;22.40;87.30;;;;;;5012488;28;20215;-83
2023/05/06 11:54:46;;;;;;;;;;;22.70;85.20;;;;;;5014335;28;19927;-82
2023/05/06 11:57:11;;;;;;;;;;;22.50;87.40;;;;;;5018401;28;19980;-82
2023/05/06 11:59:38;;;;;;;;;;;22.60;87.20;;;;;;5029554;28;19909;-82
2023/05/06 12:02:05;;;;;;;;;;;23.40;87.00;;;;;;5035428;28;20043;-81
2023/05/06 12:04:40;;;;;;;;;;;22.60;84.50;;;;;;5041710;28;19901;-82
2023/05/06 12:07:06;;;;;;;;;;;22.40;86.00;;;;;;5033409;28;19917;-82
2023/05/06 12:09:33;;;;;;;;;;;22.20;86.70;;;;;;5018800;28;20384;-81
2023/05/06 12:11:58;;;;;;;;;;;;;;;;;;5021686;28;19909;-83
2023/05/06 12:14:24;;;;;;;;;;;22.10;86.40;;;;;;5022088;28;19963;-82
2023/05/06 12:16:50;;;;;;;;;;;22.00;88.00;;;;;;5022780;28;19937;-82
2023/05/06 12:19:17;;;;;;;0.53;0.30;;;;;;;;;;5024532;28;20242;-83
2023/05/06 12:21:43;;;;;;;2.40;0.40;;;;;;;;;;5010609;28;20750;-81
2023/05/06 12:24:11;;;;;;;0.68;0.43;;;;;;;;;;5011175;28;20473;-84
2023/05/06 12:26:47;;;;;;;1.95;0.60;;;;;;;;;;5016248;28;20407;-83
2023/05/06 12:29:16;;;;;;;2.65;0.60;;;;;;;;;;5018651;28;20429;-83
2023/05/06 12:31:42;;;;;;;1.38;0.40;;;;;;;;;;5024557;28;20021;-83
2023/05/06 12:34:08;;;;;;;0.52;0.50;;;;;;;;;;5031849;28;20033;-82
2023/05/06 12:36:42;;;;;;;0.95;0.60;;;23.40;88.90;;;;;;5027479;28;20037;-82
2023/05/06 12:39:08;;;;;;;0.80;0.38;;;;;;;;;;5018708;28;20033;-83
2023/05/06 12:41:39;;;;;;;0.65;0.30;;;23.60;87.60;;;;;;5014158;28;20029;-81
2023/05/06 12:44:33;;;;;;;1.27;0.70;;;23.80;80.80;;;;;;5022162;28;20029;-82
2023/05/06 12:47:01;;;;;;;1.38;0.60;;;22.70;85.70;;;;;;5019645;28;20029;-83
2023/05/06 12:49:27;;;;;;;1.25;0.40;;;;;;;;;;5018134;28;20026;-82
2023/05/06 12:52:09;;;;;;;0.73;0.30;;;23.20;82.50;;;;;;5023748;28;20481;-83
2023/05/06 12:54:35;;;;;;;1.87;0.50;;;22.50;86.20;;;;;;5017041;28;20042;-82
2023/05/06 12:57:01;;;;;;;1.60;0.60;;;;;;;;;;5028889;28;20036;-82
2023/05/06 12:59:27;;;;;;;0.77;0.47;;;;;;;;;;5026721;28;20051;-82
2023/05/06 13:01:53;;;;;;;1.58;0.73;;;;;;;;;;5034202;28;20480;-82
2023/05/06 13:04:21;;;;;;;1.42;0.68;;;22.30;88.40;;;;;;5019365;28;20120;-82
2023/05/06 13:06:47;;;;;;;0.88;0.40;;;;;;;;;;5015619;28;20025;-82
2023/05/06 13:09:13;;;;;;;1.38;0.60;;;;;;;;;;5012438;28;20474;-82
2023/05/06 13:11:39;;;;;;;1.30;0.60;;;;;;;;;;5016404;28;20021;-84
2023/05/06 13:14:05;;;;;;;2.00;0.38;;;;;;;;;;5015543;28;20038;-83
2023/05/06 13:16:31;;;;;;;0.43;0.30;;;;;;;;;;5020992;28;20068;-82
2023/05/06 13:18:57;;;;;;;1.20;0.60;;;;;;;;;;5015257;28;20037;-85
2023/05/06 13:21:23;;;;;;;4.22;0.45;;;;;;;;;;5017062;28;20041;-81
2023/05/06 13:23:49;;;;;;;1.02;0.47;;;;;;;;;;5014524;28;20029;-81
2023/05/06 13:26:16;;;;;;;1.05;0.50;;;;;;;;;;5016974;28;20560;-82
2023/05/06 13:28:42;;;;;;;2.70;0.60;;;;;;;;;;5012976;28;20021;-81
2023/05/06 13:31:08;;;;;;;1.10;0.57;;;;;;;;;;5016258;28;20029;-82
2023/05/06 13:33:34;;;;;;;1.08;0.57;;;;;;;;;;5014827;28;20032;-82
2023/05/06 13:36:01;;;;;;;2.58;0.50;;;;;;;;;;5021902;28;20064;-83
2023/05/06 13:38:28;;;;;;;1.92;0.60;;;;;;;;;;5021152;28;20036;-82
2023/05/06 13:40:54;;;;;;;0.57;0.30;;;21.40;90.70;;;;;;5012828;28;20056;-82
2023/05/06 13:43:21;;;;;;;0.65;0.40;;;21.50;97.20;;;;;;5016846;28;20411;-82
2023/05/06 13:45:47;;;;;;;1.45;0.50;;;;;;;;;;5011486;28;20107;-85
2023/05/06 13:48:13;;;;;;;2.10;0.60;;;;;;;;;;5019120;28;20811;-84
2023/05/06 13:50:44;;;;;;;2.30;0.52;;;22.20;89.10;;;;;;5024847;28;20079;-82
2023/05/06 13:53:11;;;;;;;0.93;0.45;;;;;;;;;;5019232;28;20025;-81
2023/05/06 13:55:37;;;;;;;2.22;0.80;;;22.00;89.90;;;;;;5012432;28;20029;-82
2023/05/06 13:58:03;;;;;;;3.35;0.43;;;;;;;;;;5035234;28;20033;-82
2023/05/06 14:00:29;;;;;;;0.40;0.40;;;;;;;;;;5024822;28;20296;-83
2023/05/06 14:02:55;;;;;;;2.63;0.68;;;;;;;;;;5018475;28;20259;-85
2023/05/06 14:05:21;;;;;;;2.60;0.50;;;23.00;91.70;;;;;;5017559;28;20216;-83
2023/05/06 14:07:46;;;;;;;1.02;0.50;;;;;;;;;;5020341;28;20686;-82
2023/05/06 14:10:13;;;;;;;0.77;0.40;;;;;;;;;;5034537;28;20033;-82
2023/05/06 14:12:39;;;;;;;2.83;0.70;;;22.20;84.70;;;;;;5029041;28;20044;-82